sensor_id;sensor_type;location;lat;lon;timestamp;temperature;humidity
11136;DHT22;5622;50.840;4.948;2023-07-31T00:02:04;16.90;99.90
11136;DHT22;5622;50.840;4.948;2023-07-31T00:04:31;17.00;99.90
11136;DHT22;5622;50.840;4.948;2023-07-31T00:06:58;16.90;99.90
11136;DHT22;5622;50.840;4.948;2023-07-31T00:09:27;16.90;99.90
11136;DHT22;5622;50.840;4.948;2023-07-31T00:11:54;16.90;99.90
11136;DHT22;5622;50.840;4.948;2023-07-31T00:14:21;16.90;99.90
11136;DHT22;5622;50.840;4.948;2023-07-31T00:16:48;16.90;99.90
11136;DHT22;5622;50.840;4.948;2023-07-31T00:19:15;17.00;99.90
11136;DHT22;5622;50.840;4.948;2023-07-31T00:21:43;17.00;99.90
11136;DHT22;5622;50.840;4.948;2023-07-31T00:24:10;17.00;99.90
11136;DHT22;5622;50.840;4.948;2023-07-31T00:26:39;17.00;99.90
11136;DHT22;5622;50.840;4.948;2023-07-31T00:29:06;17.00;99.90
11136;DHT22;5622;50.840;4.948;2023-07-31T00:31:33;17.00;99.90
11136;DHT22;5622;50.840;4.948;2023-07-31T00:34:00;17.10;99.90
11136;DHT22;5622;50.840;4.948;2023-07-31T00:36:27;17.10;99.90
11136;DHT22;5622;50.840;4.948;2023-07-31T00:38:54;17.10;99.90
11136;DHT22;5622;50.840;4.948;2023-07-31T00:41:21;17.10;99.90
11136;DHT22;5622;50.840;4.948;2023-07-31T00:43:50;17.10;99.90
11136;DHT22;5622;50.840;4.948;2023-07-31T00:46:17;17.10;99.90
11136;DHT22;5622;50.840;4.948;2023-07-31T00:48:44;17.10;99.90
11136;DHT22;5622;50.840;4.948;2023-07-31T00:51:11;17.10;99.90
11136;DHT22;5622;50.840;4.948;2023-07-31T00:53:38;17.10;99.90
11136;DHT22;5622;50.840;4.948;2023-07-31T00:56:07;17.10;99.90
11136;DHT22;5622;50.840;4.948;2023-07-31T00:58:34;17.10;99.90
11136;DHT22;5622;50.840;4.948;2023-07-31T01:01:03;17.10;99.90
11136;DHT22;5622;50.840;4.948;2023-07-31T01:03:30;17.20;99.90
11136;DHT22;5622;50.840;4.948;2023-07-31T01:06:06;17.20;99.90
11136;DHT22;5622;50.840;4.948;2023-07-31T01:08:40;17.10;99.90
11136;DHT22;5622;50.840;4.948;2023-07-31T01:11:15;17.20;99.90
11136;DHT22;5622;50.840;4.948;2023-07-31T01:13:43;17.20;99.90
11136;DHT22;5622;50.840;4.948;2023-07-31T01:16:12;17.20;99.90
11136;DHT22;5622;50.840;4.948;2023-07-31T01:18:39;17.20;99.90
11136;DHT22;5622;50.840;4.948;2023-07-31T01:24:11;17.20;99.90
11136;DHT22;5622;50.840;4.948;2023-07-31T01:26:51;17.20;99.90
11136;DHT22;5622;50.840;4.948;2023-07-31T01:29:25;17.20;99.90
11136;DHT22;5622;50.840;4.948;2023-07-31T01:31:57;17.20;99.90
11136;DHT22;5622;50.840;4.948;2023-07-31T01:34:28;17.20;99.90
11136;DHT22;5622;50.840;4.948;2023-07-31T01:36:56;17.20;99.90
11136;DHT22;5622;50.840;4.948;2023-07-31T01:39:23;17.30;99.90
11136;DHT22;5622;50.840;4.948;2023-07-31T01:41:52;17.30;99.90
11136;DHT22;5622;50.840;4.948;2023-07-31T01:44:19;17.30;99.90
11136;DHT22;5622;50.840;4.948;2023-07-31T01:46:46;17.30;99.90
11136;DHT22;5622;50.840;4.948;2023-07-31T01:49:13;17.30;99.90
11136;DHT22;5622;50.840;4.948;2023-07-31T01:51:40;17.30;99.90
11136;DHT22;5622;50.840;4.948;2023-07-31T01:54:07;17.20;99.90
11136;DHT22;5622;50.840;4.948;2023-07-31T01:56:34;17.20;99.90
11136;DHT22;5622;50.840;4.948;2023-07-31T01:59:03;17.30;99.90
11136;DHT22;5622;50.840;4.948;2023-07-31T02:01:30;17.20;99.90
11136;DHT22;5622;50.840;4.948;2023-07-31T02:03:57;17.20;99.90
11136;DHT22;5622;50.840;4.948;2023-07-31T02:06:24;17.20;99.90
11136;DHT22;5622;50.840;4.948;2023-07-31T02:08:51;17.20;99.90
11136;DHT22;5622;50.840;4.948;2023-07-31T02:11:18;17.20;99.90
11136;DHT22;5622;50.840;4.948;2023-07-31T02:13:45;17.30;99.90
11136;DHT22;5622;50.840;4.948;2023-07-31T02:16:14;17.20;99.90
11136;DHT22;5622;50.840;4.948;2023-07-31T02:18:41;17.20;99.90
11136;DHT22;5622;50.840;4.948;2023-07-31T02:21:08;17.30;99.90
11136;DHT22;5622;50.840;4.948;2023-07-31T02:23:35;17.20;99.90
11136;DHT22;5622;50.840;4.948;2023-07-31T02:26:02;17.30;99.90
11136;DHT22;5622;50.840;4.948;2023-07-31T02:28:29;17.20;99.90
11136;DHT22;5622;50.840;4.948;2023-07-31T02:30:56;17.30;99.90
11136;DHT22;5622;50.840;4.948;2023-07-31T02:33:25;17.30;99.90
11136;DHT22;5622;50.840;4.948;2023-07-31T02:35:52;17.30;99.90
11136;DHT22;5622;50.840;4.948;2023-07-31T02:38:19;17.30;99.90
11136;DHT22;5622;50.840;4.948;2023-07-31T02:40:46;17.20;99.90
11136;DHT22;5622;50.840;4.948;2023-07-31T02:43:13;17.30;99.90
11136;DHT22;5622;50.840;4.948;2023-07-31T02:45:40;17.30;99.90
11136;DHT22;5622;50.840;4.948;2023-07-31T02:48:07;17.30;99.90
11136;DHT22;5622;50.840;4.948;2023-07-31T02:50:36;17.30;99.90
11136;DHT22;5622;50.840;4.948;2023-07-31T02:53:03;17.30;99.90
11136;DHT22;5622;50.840;4.948;2023-07-31T02:55:30;17.30;99.90
11136;DHT22;5622;50.840;4.948;2023-07-31T02:57:57;17.30;99.90
11136;DHT22;5622;50.840;4.948;2023-07-31T03:00:25;17.30;99.90
11136;DHT22;5622;50.840;4.948;2023-07-31T03:02:52;17.30;99.90
11136;DHT22;5622;50.840;4.948;2023-07-31T03:05:19;17.30;99.90
11136;DHT22;5622;50.840;4.948;2023-07-31T03:07:47;17.30;99.90
11136;DHT22;5622;50.840;4.948;2023-07-31T03:10:14;17.30;99.90
11136;DHT22;5622;50.840;4.948;2023-07-31T03:12:41;17.30;99.90
11136;DHT22;5622;50.840;4.948;2023-07-31T03:15:09;17.30;99.90
11136;DHT22;5622;50.840;4.948;2023-07-31T03:17:37;17.30;99.90
11136;DHT22;5622;50.840;4.948;2023-07-31T03:20:04;17.30;99.90
11136;DHT22;5622;50.840;4.948;2023-07-31T03:22:31;17.30;99.90
11136;DHT22;5622;50.840;4.948;2023-07-31T03:25:02;17.20;99.90
11136;DHT22;5622;50.840;4.948;2023-07-31T03:27:29;17.30;99.90
11136;DHT22;5622;50.840;4.948;2023-07-31T03:29:56;17.30;99.90
11136;DHT22;5622;50.840;4.948;2023-07-31T03:32:23;17.20;99.90
11136;DHT22;5622;50.840;4.948;2023-07-31T03:34:50;17.30;99.90
11136;DHT22;5622;50.840;4.948;2023-07-31T03:37:17;17.30;99.90
11136;DHT22;5622;50.840;4.948;2023-07-31T03:39:44;17.30;99.90
11136;DHT22;5622;50.840;4.948;2023-07-31T03:42:13;17.30;99.90
11136;DHT22;5622;50.840;4.948;2023-07-31T03:44:40;17.30;99.90
11136;DHT22;5622;50.840;4.948;2023-07-31T03:47:07;17.30;99.90
11136;DHT22;5622;50.840;4.948;2023-07-31T03:49:34;17.30;99.90
11136;DHT22;5622;50.840;4.948;2023-07-31T03:52:01;17.20;99.90
11136;DHT22;5622;50.840;4.948;2023-07-31T03:54:28;17.30;99.90
11136;DHT22;5622;50.840;4.948;2023-07-31T03:56:55;17.30;99.90
11136;DHT22;5622;50.840;4.948;2023-07-31T03:59:24;17.20;99.90
11136;DHT22;5622;50.840;4.948;2023-07-31T04:01:51;17.20;99.90
11136;DHT22;5622;50.840;4.948;2023-07-31T04:04:18;17.30;99.90
11136;DHT22;5622;50.840;4.948;2023-07-31T04:06:45;17.20;99.90
11136;DHT22;5622;50.840;4.948;2023-07-31T04:09:12;17.20;99.90
11136;DHT22;5622;50.840;4.948;2023-07-31T04:11:39;17.20;99.90
11136;DHT22;5622;50.840;4.948;2023-07-31T04:14:06;17.20;99.90
11136;DHT22;5622;50.840;4.948;2023-07-31T04:16:34;17.30;99.90
11136;DHT22;5622;50.840;4.948;2023-07-31T04:19:03;17.20;99.90
11136;DHT22;5622;50.840;4.948;2023-07-31T04:21:30;17.30;99.90
11136;DHT22;5622;50.840;4.948;2023-07-31T04:23:57;17.20;99.90
11136;DHT22;5622;50.840;4.948;2023-07-31T04:26:24;17.20;99.90
11136;DHT22;5622;50.840;4.948;2023-07-31T04:28:51;17.20;99.90
11136;DHT22;5622;50.840;4.948;2023-07-31T04:31:18;17.30;99.90
11136;DHT22;5622;50.840;4.948;2023-07-31T04:33:47;17.30;99.90
11136;DHT22;5622;50.840;4.948;2023-07-31T04:36:14;17.30;99.90
11136;DHT22;5622;50.840;4.948;2023-07-31T04:38:41;17.30;99.90
11136;DHT22;5622;50.840;4.948;2023-07-31T04:41:08;17.20;99.90
11136;DHT22;5622;50.840;4.948;2023-07-31T04:43:35;17.20;99.90
11136;DHT22;5622;50.840;4.948;2023-07-31T04:46:04;17.20;99.90
11136;DHT22;5622;50.840;4.948;2023-07-31T04:48:31;17.20;99.90
11136;DHT22;5622;50.840;4.948;2023-07-31T04:51:00;17.20;99.90
11136;DHT22;5622;50.840;4.948;2023-07-31T04:53:27;17.20;99.90
11136;DHT22;5622;50.840;4.948;2023-07-31T04:55:54;17.20;99.90
11136;DHT22;5622;50.840;4.948;2023-07-31T04:58:23;17.20;99.90
11136;DHT22;5622;50.840;4.948;2023-07-31T05:00:50;17.20;99.90
11136;DHT22;5622;50.840;4.948;2023-07-31T05:03:17;17.20;99.90
11136;DHT22;5622;50.840;4.948;2023-07-31T05:05:44;17.20;99.90
11136;DHT22;5622;50.840;4.948;2023-07-31T05:08:13;17.20;99.90
11136;DHT22;5622;50.840;4.948;2023-07-31T05:10:40;17.20;99.90
11136;DHT22;5622;50.840;4.948;2023-07-31T05:13:07;17.20;99.90
11136;DHT22;5622;50.840;4.948;2023-07-31T05:15:34;17.20;99.90
11136;DHT22;5622;50.840;4.948;2023-07-31T05:18:01;17.20;99.90
11136;DHT22;5622;50.840;4.948;2023-07-31T05:20:28;17.20;99.90
11136;DHT22;5622;50.840;4.948;2023-07-31T05:22:55;17.20;99.90
11136;DHT22;5622;50.840;4.948;2023-07-31T05:25:23;17.20;99.90
11136;DHT22;5622;50.840;4.948;2023-07-31T05:27:51;17.20;99.90
11136;DHT22;5622;50.840;4.948;2023-07-31T05:30:18;17.20;99.90
11136;DHT22;5622;50.840;4.948;2023-07-31T05:32:46;17.20;99.90
11136;DHT22;5622;50.840;4.948;2023-07-31T05:35:14;17.20;99.90
11136;DHT22;5622;50.840;4.948;2023-07-31T05:37:41;17.20;99.90
11136;DHT22;5622;50.840;4.948;2023-07-31T05:40:08;17.20;99.90
11136;DHT22;5622;50.840;4.948;2023-07-31T05:42:37;17.20;99.90
11136;DHT22;5622;50.840;4.948;2023-07-31T05:45:05;17.20;99.90
11136;DHT22;5622;50.840;4.948;2023-07-31T05:47:33;17.20;99.90
11136;DHT22;5622;50.840;4.948;2023-07-31T05:50:00;17.20;99.90
11136;DHT22;5622;50.840;4.948;2023-07-31T05:52:27;17.10;99.90
11136;DHT22;5622;50.840;4.948;2023-07-31T05:54:55;17.10;99.90
11136;DHT22;5622;50.840;4.948;2023-07-31T05:57:22;17.10;99.90
11136;DHT22;5622;50.840;4.948;2023-07-31T05:59:50;17.10;99.90
11136;DHT22;5622;50.840;4.948;2023-07-31T06:02:19;17.10;99.90
11136;DHT22;5622;50.840;4.948;2023-07-31T06:04:46;17.10;99.90
11136;DHT22;5622;50.840;4.948;2023-07-31T06:07:13;17.10;99.90
11136;DHT22;5622;50.840;4.948;2023-07-31T06:09:40;17.10;99.90
11136;DHT22;5622;50.840;4.948;2023-07-31T06:12:07;17.00;99.90
11136;DHT22;5622;50.840;4.948;2023-07-31T06:14:34;17.00;99.90
11136;DHT22;5622;50.840;4.948;2023-07-31T06:17:03;17.00;99.90
11136;DHT22;5622;50.840;4.948;2023-07-31T06:19:30;17.00;99.90
11136;DHT22;5622;50.840;4.948;2023-07-31T06:21:57;17.00;99.90
11136;DHT22;5622;50.840;4.948;2023-07-31T06:24:24;17.00;99.90
11136;DHT22;5622;50.840;4.948;2023-07-31T06:26:52;16.90;99.90
11136;DHT22;5622;50.840;4.948;2023-07-31T06:29:19;16.90;99.90
11136;DHT22;5622;50.840;4.948;2023-07-31T06:31:46;16.90;99.90
11136;DHT22;5622;50.840;4.948;2023-07-31T06:34:14;17.00;99.90
11136;DHT22;5622;50.840;4.948;2023-07-31T06:36:41;17.00;99.90
11136;DHT22;5622;50.840;4.948;2023-07-31T06:39:08;17.00;99.90
11136;DHT22;5622;50.840;4.948;2023-07-31T06:41:35;17.00;99.90
11136;DHT22;5622;50.840;4.948;2023-07-31T06:44:03;17.00;99.90
11136;DHT22;5622;50.840;4.948;2023-07-31T06:46:30;17.00;99.90
11136;DHT22;5622;50.840;4.948;2023-07-31T06:48:57;17.00;99.90
11136;DHT22;5622;50.840;4.948;2023-07-31T06:51:25;17.00;99.90
11136;DHT22;5622;50.840;4.948;2023-07-31T06:53:52;17.00;99.90
11136;DHT22;5622;50.840;4.948;2023-07-31T06:56:21;17.00;99.90
11136;DHT22;5622;50.840;4.948;2023-07-31T06:58:48;17.00;99.90
11136;DHT22;5622;50.840;4.948;2023-07-31T07:01:15;17.00;99.90
11136;DHT22;5622;50.840;4.948;2023-07-31T07:03:42;17.00;99.90
11136;DHT22;5622;50.840;4.948;2023-07-31T07:06:09;17.10;99.90
11136;DHT22;5622;50.840;4.948;2023-07-31T07:08:37;17.10;99.90
11136;DHT22;5622;50.840;4.948;2023-07-31T07:11:04;17.10;99.90
11136;DHT22;5622;50.840;4.948;2023-07-31T07:13:31;17.20;99.90
11136;DHT22;5622;50.840;4.948;2023-07-31T07:15:58;17.10;99.90
11136;DHT22;5622;50.840;4.948;2023-07-31T07:18:26;17.20;99.90
11136;DHT22;5622;50.840;4.948;2023-07-31T07:20:54;17.10;99.90
11136;DHT22;5622;50.840;4.948;2023-07-31T07:23:23;17.10;99.90
11136;DHT22;5622;50.840;4.948;2023-07-31T07:25:51;17.20;99.90
11136;DHT22;5622;50.840;4.948;2023-07-31T07:28:18;17.20;99.90
11136;DHT22;5622;50.840;4.948;2023-07-31T07:30:50;17.20;99.90
11136;DHT22;5622;50.840;4.948;2023-07-31T07:33:17;17.20;99.90
11136;DHT22;5622;50.840;4.948;2023-07-31T07:35:44;17.20;99.90
11136;DHT22;5622;50.840;4.948;2023-07-31T07:38:11;17.10;99.90
11136;DHT22;5622;50.840;4.948;2023-07-31T07:40:39;17.20;99.90
11136;DHT22;5622;50.840;4.948;2023-07-31T07:43:07;17.20;99.90
11136;DHT22;5622;50.840;4.948;2023-07-31T07:45:34;17.20;99.90
11136;DHT22;5622;50.840;4.948;2023-07-31T07:48:01;17.20;99.90
11136;DHT22;5622;50.840;4.948;2023-07-31T07:50:29;17.20;99.90
11136;DHT22;5622;50.840;4.948;2023-07-31T07:52:56;17.10;99.90
11136;DHT22;5622;50.840;4.948;2023-07-31T07:55:23;17.20;99.90
11136;DHT22;5622;50.840;4.948;2023-07-31T07:57:50;17.20;99.90
11136;DHT22;5622;50.840;4.948;2023-07-31T08:00:18;17.20;99.90
11136;DHT22;5622;50.840;4.948;2023-07-31T08:02:45;17.20;99.90
11136;DHT22;5622;50.840;4.948;2023-07-31T08:05:13;17.20;99.90
11136;DHT22;5622;50.840;4.948;2023-07-31T08:07:40;17.20;99.90
11136;DHT22;5622;50.840;4.948;2023-07-31T08:10:07;17.20;99.90
11136;DHT22;5622;50.840;4.948;2023-07-31T08:12:34;17.20;99.90
11136;DHT22;5622;50.840;4.948;2023-07-31T08:15:01;17.20;99.90
11136;DHT22;5622;50.840;4.948;2023-07-31T08:17:30;17.30;99.90
11136;DHT22;5622;50.840;4.948;2023-07-31T08:19:57;17.30;99.90
11136;DHT22;5622;50.840;4.948;2023-07-31T08:22:24;17.30;99.90
11136;DHT22;5622;50.840;4.948;2023-07-31T08:24:52;17.30;99.90
11136;DHT22;5622;50.840;4.948;2023-07-31T08:27:19;17.30;99.90
11136;DHT22;5622;50.840;4.948;2023-07-31T08:29:46;17.30;99.90
11136;DHT22;5622;50.840;4.948;2023-07-31T08:32:13;17.30;99.90
11136;DHT22;5622;50.840;4.948;2023-07-31T08:34:41;17.30;99.90
11136;DHT22;5622;50.840;4.948;2023-07-31T08:37:08;17.30;99.90
11136;DHT22;5622;50.840;4.948;2023-07-31T08:39:37;17.30;99.90
11136;DHT22;5622;50.840;4.948;2023-07-31T08:42:07;17.40;99.90
11136;DHT22;5622;50.840;4.948;2023-07-31T08:44:35;17.30;99.90
11136;DHT22;5622;50.840;4.948;2023-07-31T08:47:02;17.40;99.90
11136;DHT22;5622;50.840;4.948;2023-07-31T08:49:30;17.40;99.90
11136;DHT22;5622;50.840;4.948;2023-07-31T08:51:59;17.40;99.90
11136;DHT22;5622;50.840;4.948;2023-07-31T08:54:27;17.40;99.90
11136;DHT22;5622;50.840;4.948;2023-07-31T08:56:56;17.40;99.90
11136;DHT22;5622;50.840;4.948;2023-07-31T08:59:26;17.40;99.90
11136;DHT22;5622;50.840;4.948;2023-07-31T09:01:56;17.50;99.90
11136;DHT22;5622;50.840;4.948;2023-07-31T09:04:25;17.50;99.90
11136;DHT22;5622;50.840;4.948;2023-07-31T09:06:59;17.50;99.90
11136;DHT22;5622;50.840;4.948;2023-07-31T09:09:27;17.50;99.90
11136;DHT22;5622;50.840;4.948;2023-07-31T09:11:55;17.50;99.90
11136;DHT22;5622;50.840;4.948;2023-07-31T09:14:25;17.50;99.90
11136;DHT22;5622;50.840;4.948;2023-07-31T09:16:53;17.50;99.90
11136;DHT22;5622;50.840;4.948;2023-07-31T09:19:27;17.50;99.90
11136;DHT22;5622;50.840;4.948;2023-07-31T09:21:54;17.50;99.90
11136;DHT22;5622;50.840;4.948;2023-07-31T09:24:30;17.50;99.90
11136;DHT22;5622;50.840;4.948;2023-07-31T09:26:59;17.60;99.90
11136;DHT22;5622;50.840;4.948;2023-07-31T09:29:28;17.70;99.90
11136;DHT22;5622;50.840;4.948;2023-07-31T09:31:55;17.60;99.90
11136;DHT22;5622;50.840;4.948;2023-07-31T09:34:29;17.60;99.90
11136;DHT22;5622;50.840;4.948;2023-07-31T09:37:01;17.60;99.90
11136;DHT22;5622;50.840;4.948;2023-07-31T09:39:30;17.60;99.90
11136;DHT22;5622;50.840;4.948;2023-07-31T09:41:57;17.60;99.90
11136;DHT22;5622;50.840;4.948;2023-07-31T09:44:38;17.70;99.90
11136;DHT22;5622;50.840;4.948;2023-07-31T09:47:06;17.70;99.90
11136;DHT22;5622;50.840;4.948;2023-07-31T09:49:33;17.70;99.90
11136;DHT22;5622;50.840;4.948;2023-07-31T09:52:00;17.80;99.90
11136;DHT22;5622;50.840;4.948;2023-07-31T09:54:27;17.80;99.90
11136;DHT22;5622;50.840;4.948;2023-07-31T09:56:57;17.90;99.90
11136;DHT22;5622;50.840;4.948;2023-07-31T09:59:25;17.90;99.90
11136;DHT22;5622;50.840;4.948;2023-07-31T10:01:53;17.90;99.90
11136;DHT22;5622;50.840;4.948;2023-07-31T10:04:25;17.90;99.90
11136;DHT22;5622;50.840;4.948;2023-07-31T10:06:54;18.00;99.90
11136;DHT22;5622;50.840;4.948;2023-07-31T10:09:24;18.00;99.90
11136;DHT22;5622;50.840;4.948;2023-07-31T10:11:59;18.00;99.90
11136;DHT22;5622;50.840;4.948;2023-07-31T10:14:27;18.10;99.90
11136;DHT22;5622;50.840;4.948;2023-07-31T10:16:55;18.10;99.90
11136;DHT22;5622;50.840;4.948;2023-07-31T10:19:23;18.10;99.90
11136;DHT22;5622;50.840;4.948;2023-07-31T10:21:50;18.10;99.90
11136;DHT22;5622;50.840;4.948;2023-07-31T10:24:18;18.10;99.90
11136;DHT22;5622;50.840;4.948;2023-07-31T10:26:47;18.10;99.90
11136;DHT22;5622;50.840;4.948;2023-07-31T10:29:17;18.10;99.90
11136;DHT22;5622;50.840;4.948;2023-07-31T10:31:47;18.10;99.90
11136;DHT22;5622;50.840;4.948;2023-07-31T10:34:14;18.20;99.90
11136;DHT22;5622;50.840;4.948;2023-07-31T10:36:41;18.20;99.90
11136;DHT22;5622;50.840;4.948;2023-07-31T10:39:33;18.20;99.90
11136;DHT22;5622;50.840;4.948;2023-07-31T10:42:10;18.30;99.90
11136;DHT22;5622;50.840;4.948;2023-07-31T10:44:43;18.30;99.90
11136;DHT22;5622;50.840;4.948;2023-07-31T10:47:10;18.30;99.90
11136;DHT22;5622;50.840;4.948;2023-07-31T10:49:41;18.30;99.90
11136;DHT22;5622;50.840;4.948;2023-07-31T10:52:12;18.40;99.90
11136;DHT22;5622;50.840;4.948;2023-07-31T10:54:40;18.40;99.90
11136;DHT22;5622;50.840;4.948;2023-07-31T10:57:19;18.40;99.90
11136;DHT22;5622;50.840;4.948;2023-07-31T10:59:48;18.50;99.90
11136;DHT22;5622;50.840;4.948;2023-07-31T11:02:26;18.50;99.90
11136;DHT22;5622;50.840;4.948;2023-07-31T11:05:08;18.50;99.90
11136;DHT22;5622;50.840;4.948;2023-07-31T11:07:48;18.50;99.90
11136;DHT22;5622;50.840;4.948;2023-07-31T11:10:18;18.60;99.90
11136;DHT22;5622;50.840;4.948;2023-07-31T11:12:46;18.50;99.90
11136;DHT22;5622;50.840;4.948;2023-07-31T11:15:14;18.60;99.90
11136;DHT22;5622;50.840;4.948;2023-07-31T11:17:42;18.60;99.90
11136;DHT22;5622;50.840;4.948;2023-07-31T11:20:09;18.60;99.90
11136;DHT22;5622;50.840;4.948;2023-07-31T11:22:37;18.60;99.90
11136;DHT22;5622;50.840;4.948;2023-07-31T11:25:04;18.70;99.90
11136;DHT22;5622;50.840;4.948;2023-07-31T11:27:38;18.70;99.90
11136;DHT22;5622;50.840;4.948;2023-07-31T11:30:07;18.70;99.90
11136;DHT22;5622;50.840;4.948;2023-07-31T11:32:36;18.70;99.90
11136;DHT22;5622;50.840;4.948;2023-07-31T11:35:04;18.70;99.90
11136;DHT22;5622;50.840;4.948;2023-07-31T11:37:40;18.70;99.90
11136;DHT22;5622;50.840;4.948;2023-07-31T11:40:08;18.70;99.90
11136;DHT22;5622;50.840;4.948;2023-07-31T11:42:35;18.80;99.90
11136;DHT22;5622;50.840;4.948;2023-07-31T11:45:03;18.80;99.90
11136;DHT22;5622;50.840;4.948;2023-07-31T11:47:32;18.90;99.90
11136;DHT22;5622;50.840;4.948;2023-07-31T11:50:03;18.90;99.90
11136;DHT22;5622;50.840;4.948;2023-07-31T11:52:34;19.00;99.90
11136;DHT22;5622;50.840;4.948;2023-07-31T11:55:04;19.00;99.90
11136;DHT22;5622;50.840;4.948;2023-07-31T11:57:33;19.00;99.90
11136;DHT22;5622;50.840;4.948;2023-07-31T12:00:00;18.90;99.90
11136;DHT22;5622;50.840;4.948;2023-07-31T12:02:28;18.90;99.90
11136;DHT22;5622;50.840;4.948;2023-07-31T12:04:55;18.90;99.90
11136;DHT22;5622;50.840;4.948;2023-07-31T12:07:24;18.90;99.90
11136;DHT22;5622;50.840;4.948;2023-07-31T12:09:52;18.90;99.90
11136;DHT22;5622;50.840;4.948;2023-07-31T12:12:20;18.90;99.90
11136;DHT22;5622;50.840;4.948;2023-07-31T12:14:48;18.90;99.90
11136;DHT22;5622;50.840;4.948;2023-07-31T12:17:17;18.90;99.90
11136;DHT22;5622;50.840;4.948;2023-07-31T12:19:45;18.90;99.90
11136;DHT22;5622;50.840;4.948;2023-07-31T12:22:13;19.00;99.90
11136;DHT22;5622;50.840;4.948;2023-07-31T12:24:43;19.00;99.90
11136;DHT22;5622;50.840;4.948;2023-07-31T12:27:11;19.10;99.90
11136;DHT22;5622;50.840;4.948;2023-07-31T12:29:39;19.20;99.90
11136;DHT22;5622;50.840;4.948;2023-07-31T12:32:22;19.20;99.90
11136;DHT22;5622;50.840;4.948;2023-07-31T12:34:49;19.30;99.90
11136;DHT22;5622;50.840;4.948;2023-07-31T12:37:16;19.40;99.90
11136;DHT22;5622;50.840;4.948;2023-07-31T12:39:45;19.50;99.90
11136;DHT22;5622;50.840;4.948;2023-07-31T12:42:12;19.50;99.90
11136;DHT22;5622;50.840;4.948;2023-07-31T12:44:39;19.50;99.90
11136;DHT22;5622;50.840;4.948;2023-07-31T12:47:06;19.50;99.90
11136;DHT22;5622;50.840;4.948;2023-07-31T12:49:33;19.50;99.90
11136;DHT22;5622;50.840;4.948;2023-07-31T12:52:00;19.50;99.90
11136;DHT22;5622;50.840;4.948;2023-07-31T12:54:27;19.40;99.90
11136;DHT22;5622;50.840;4.948;2023-07-31T12:56:56;19.40;99.90
11136;DHT22;5622;50.840;4.948;2023-07-31T12:59:23;19.40;99.90
11136;DHT22;5622;50.840;4.948;2023-07-31T13:01:50;19.40;99.90
11136;DHT22;5622;50.840;4.948;2023-07-31T13:04:17;19.40;99.90
11136;DHT22;5622;50.840;4.948;2023-07-31T13:06:44;19.30;99.90
11136;DHT22;5622;50.840;4.948;2023-07-31T13:09:11;19.30;99.90
11136;DHT22;5622;50.840;4.948;2023-07-31T13:11:38;19.30;99.90
11136;DHT22;5622;50.840;4.948;2023-07-31T13:14:06;19.30;99.90
11136;DHT22;5622;50.840;4.948;2023-07-31T13:16:33;19.40;99.90
11136;DHT22;5622;50.840;4.948;2023-07-31T13:19:01;19.40;99.90
11136;DHT22;5622;50.840;4.948;2023-07-31T13:21:28;19.40;99.90
11136;DHT22;5622;50.840;4.948;2023-07-31T13:23:55;19.40;99.90
11136;DHT22;5622;50.840;4.948;2023-07-31T13:26:24;19.40;99.90
11136;DHT22;5622;50.840;4.948;2023-07-31T13:28:52;19.40;99.90
11136;DHT22;5622;50.840;4.948;2023-07-31T13:31:20;19.50;99.90
11136;DHT22;5622;50.840;4.948;2023-07-31T13:33:47;19.50;99.90
11136;DHT22;5622;50.840;4.948;2023-07-31T13:36:14;19.50;99.90
11136;DHT22;5622;50.840;4.948;2023-07-31T13:38:41;19.50;99.90
11136;DHT22;5622;50.840;4.948;2023-07-31T13:41:08;19.40;99.90
11136;DHT22;5622;50.840;4.948;2023-07-31T13:43:35;19.50;99.90
11136;DHT22;5622;50.840;4.948;2023-07-31T13:46:02;19.50;99.90
11136;DHT22;5622;50.840;4.948;2023-07-31T13:48:34;19.40;99.90
11136;DHT22;5622;50.840;4.948;2023-07-31T13:51:02;19.40;99.90
11136;DHT22;5622;50.840;4.948;2023-07-31T13:53:29;19.40;99.90
11136;DHT22;5622;50.840;4.948;2023-07-31T13:55:56;19.30;99.90
11136;DHT22;5622;50.840;4.948;2023-07-31T13:58:23;19.30;99.90
11136;DHT22;5622;50.840;4.948;2023-07-31T14:00:50;19.30;99.90
11136;DHT22;5622;50.840;4.948;2023-07-31T14:03:17;19.30;99.90
11136;DHT22;5622;50.840;4.948;2023-07-31T14:05:46;19.30;99.90
11136;DHT22;5622;50.840;4.948;2023-07-31T14:08:13;19.20;99.90
11136;DHT22;5622;50.840;4.948;2023-07-31T14:10:40;19.20;99.90
11136;DHT22;5622;50.840;4.948;2023-07-31T14:13:07;19.10;99.90
11136;DHT22;5622;50.840;4.948;2023-07-31T14:15:34;19.10;99.90
11136;DHT22;5622;50.840;4.948;2023-07-31T14:18:01;19.10;99.90
11136;DHT22;5622;50.840;4.948;2023-07-31T14:20:29;19.10;99.90
11136;DHT22;5622;50.840;4.948;2023-07-31T14:22:58;19.10;99.90
11136;DHT22;5622;50.840;4.948;2023-07-31T14:25:25;19.00;99.90
11136;DHT22;5622;50.840;4.948;2023-07-31T14:27:52;19.00;99.90
11136;DHT22;5622;50.840;4.948;2023-07-31T14:30:19;19.00;99.90
11136;DHT22;5622;50.840;4.948;2023-07-31T14:32:47;19.00;99.90
11136;DHT22;5622;50.840;4.948;2023-07-31T14:35:14;18.90;99.90
11136;DHT22;5622;50.840;4.948;2023-07-31T14:37:43;18.90;99.90
11136;DHT22;5622;50.840;4.948;2023-07-31T14:40:13;18.90;99.90
11136;DHT22;5622;50.840;4.948;2023-07-31T14:42:40;18.80;99.90
11136;DHT22;5622;50.840;4.948;2023-07-31T14:45:08;18.80;99.90
11136;DHT22;5622;50.840;4.948;2023-07-31T14:47:35;18.80;99.90
11136;DHT22;5622;50.840;4.948;2023-07-31T14:50:03;18.80;99.90
11136;DHT22;5622;50.840;4.948;2023-07-31T14:52:30;18.70;99.90
11136;DHT22;5622;50.840;4.948;2023-07-31T14:54:57;18.70;99.90
11136;DHT22;5622;50.840;4.948;2023-07-31T14:57:26;18.70;99.90
11136;DHT22;5622;50.840;4.948;2023-07-31T14:59:53;18.70;99.90
11136;DHT22;5622;50.840;4.948;2023-07-31T15:02:20;18.70;99.90
11136;DHT22;5622;50.840;4.948;2023-07-31T15:04:47;18.60;99.90
11136;DHT22;5622;50.840;4.948;2023-07-31T15:07:14;18.70;99.90
11136;DHT22;5622;50.840;4.948;2023-07-31T15:09:41;18.60;99.90
11136;DHT22;5622;50.840;4.948;2023-07-31T15:12:08;18.60;99.90
11136;DHT22;5622;50.840;4.948;2023-07-31T15:14:37;18.70;99.90
11136;DHT22;5622;50.840;4.948;2023-07-31T15:17:04;18.60;99.90
11136;DHT22;5622;50.840;4.948;2023-07-31T15:19:31;18.60;99.90
11136;DHT22;5622;50.840;4.948;2023-07-31T15:22:00;18.60;99.90
11136;DHT22;5622;50.840;4.948;2023-07-31T15:24:27;18.60;99.90
11136;DHT22;5622;50.840;4.948;2023-07-31T15:26:54;18.60;99.90
11136;DHT22;5622;50.840;4.948;2023-07-31T15:29:21;18.60;99.90
11136;DHT22;5622;50.840;4.948;2023-07-31T15:31:50;18.60;99.90
11136;DHT22;5622;50.840;4.948;2023-07-31T15:34:17;18.60;99.90
11136;DHT22;5622;50.840;4.948;2023-07-31T15:36:44;18.60;99.90
11136;DHT22;5622;50.840;4.948;2023-07-31T15:39:12;18.60;99.90
11136;DHT22;5622;50.840;4.948;2023-07-31T15:41:39;18.50;99.90
11136;DHT22;5622;50.840;4.948;2023-07-31T15:44:07;18.60;99.90
11136;DHT22;5622;50.840;4.948;2023-07-31T15:46:34;18.60;99.90
11136;DHT22;5622;50.840;4.948;2023-07-31T15:49:03;18.60;99.90
11136;DHT22;5622;50.840;4.948;2023-07-31T15:51:30;18.60;99.90
11136;DHT22;5622;50.840;4.948;2023-07-31T15:53:57;18.60;99.90